Latest Weather Observations for Bellambi

IDN60801

Issued at 1:22 pm EST Saturday 8 August 2020 (issued every 10 minutes, with the page automatically refreshed every 10 minutes)

About weather observations | Map of weather stations | Latest weather observations for NSW | Other Formats
Station Details ID: 068228 Name: BELLAMBI AWS Lat: -34.37 Lon: 150.93 Height: 10.0 m
Data from the previous 72 hours. | See also: Recent months at Bellambi
Date/Time
EST
Temp
°C
App
Temp
°C
Dew
Point
°C
Rel
Hum
%
Delta-T
°C
Wind Press
QNH
hPa
Press
MSL
hPa
Rain since
9am
mm
Dir  Spd
km/h
Gust
km/h
Spd
kts
Gust
kts
08/01:00pm 15.5 15.4 13.9 90 0.9 NNE 7 11 4 6 - - 9.4
08/12:30pm 15.1 14.5 13.5 90 0.9 NNE 9 15 5 8 - - 9.4
08/12:00pm 15.2 13.5 13.7 91 0.8 N 15 19 8 10 - - 9.4
08/11:59am 15.3 13.7 13.8 91 0.8 N 15 19 8 10 - - 9.4
08/11:30am 15.9 13.1 14.4 91 0.9 ENE 22 28 12 15 - - 9.4
08/11:27am 15.7 12.5 14.2 91 0.9 E 24 30 13 16 - - 9.4
08/11:08am 15.6 11.2 14.1 91 0.8 E 30 33 16 18 - - 9.4
08/11:00am 15.6 10.9 14.3 92 0.7 ESE 32 35 17 19 - - 9.4
08/10:30am 15.3 10.0 14.3 94 0.6 ESE 35 39 19 21 - - 9.2
08/10:00am 15.0 9.7 14.2 95 0.5 ESE 35 48 19 26 - - 8.4
08/09:57am 14.9 9.5 13.9 94 0.6 ESE 35 48 19 26 - - 8.4
08/09:30am 14.7 9.9 14.1 96 0.3 ESE 32 43 17 23 - - 3.8
08/09:26am 14.5 11.9 13.9 96 0.3 SSE 20 41 11 22 - - 3.0
08/09:00am 13.0 10.8 12.2 95 0.4 SSW 15 20 8 11 - - 72.2
08/08:30am 13.0 11.6 12.1 94 0.5 SW 11 19 6 10 - - 65.2
08/08:00am 13.4 12.1 12.5 94 0.5 S 11 15 6 8 - - 62.8
08/07:34am 13.5 10.5 12.6 94 0.5 S 20 26 11 14 - - 62.6
08/07:30am 13.3 10.3 12.4 94 0.5 S 20 24 11 13 - - 62.4
08/07:00am 13.2 11.8 12.3 94 0.5 SSW 11 13 6 7 - - 59.0
08/06:30am 13.2 11.1 12.3 94 0.5 SSW 15 19 8 10 - - 59.0
08/06:00am 13.0 11.2 12.1 94 0.5 SSW 13 17 7 9 - - 59.0
08/05:30am 12.5 10.5 11.6 94 0.5 SW 13 15 7 8 - - 59.0
08/05:00am 12.7 10.8 11.8 94 0.5 SW 13 15 7 8 - - 59.0
08/04:30am 12.8 11.3 11.9 94 0.5 WSW 11 13 6 7 - - 59.0
08/04:00am 12.6 10.7 11.8 95 0.4 WSW 13 15 7 8 - - 59.0
08/03:48am 12.5 10.9 11.7 95 0.4 WSW 11 15 6 8 - - 59.0
08/03:30am 12.6 11.5 11.8 95 0.4 SW 9 11 5 6 - - 59.0
08/03:12am 12.7 11.2 11.8 94 0.5 SW 11 15 6 8 - - 59.0
08/03:00am 13.3 11.6 12.5 95 0.4 SSW 13 15 7 8 - - 59.0
08/02:30am 12.9 11.5 12.1 95 0.4 SSW 11 15 6 8 - - 59.0
08/02:00am 12.5 10.9 11.7 95 0.4 WSW 11 13 6 7 - - 59.0
08/01:43am 12.5 10.9 11.7 95 0.4 WSW 11 17 6 9 - - 59.0
08/01:30am 12.4 10.4 11.6 95 0.4 WSW 13 17 7 9 - - 58.6
08/01:00am 12.3 10.3 11.5 95 0.4 SW 13 19 7 10 - - 57.4
08/12:30am 12.8 10.2 12.0 95 0.4 SSW 17 19 9 10 - - 57.2
08/12:07am 13.0 10.4 12.1 94 0.5 SSW 17 22 9 12 - - 57.0
08/12:00am 13.0 10.4 12.1 94 0.5 SSW 17 22 9 12 - - 57.0
 
Date/Time
EST
Temp
°C
App
Temp
°C
Dew
Point
°C
Rel
Hum
%
Delta-T
°C
Wind Press
QNH
hPa
Press
MSL
hPa
Rain since
9am
mm
Dir  Spd
km/h
Gust
km/h
Spd
kts
Gust
kts
07/11:44pm 13.1 11.7 12.3 95 0.4 SSW 11 15 6 8 - - 56.8
07/11:30pm 12.7 11.6 11.8 94 0.5 WSW 9 11 5 6 - - 56.6
07/11:06pm 13.1 12.6 12.2 94 0.5 SW 6 9 3 5 - - 56.6
07/11:00pm 13.2 13.2 12.3 94 0.5 SW 4 9 2 5 - - 56.6
07/10:38pm 12.7 11.2 11.8 94 0.5 WSW 11 17 6 9 - - 56.2
07/10:30pm 12.7 11.6 11.8 94 0.5 WSW 9 11 5 6 - - 56.2
07/10:00pm 13.3 9.1 12.4 94 0.5 ENE 26 33 14 18 - - 52.8
07/09:46pm 13.6 9.1 12.7 94 0.5 ESE 28 41 15 22 - - 51.0
07/09:30pm 12.8 12.3 11.9 94 0.5 SW 6 9 3 5 - - 48.6
07/09:00pm 12.8 10.9 11.9 94 0.5 NW 13 17 7 9 - - 40.4
07/08:30pm 13.1 10.2 12.2 94 0.5 NNE 19 28 10 15 - - 36.0
07/08:26pm 13.1 10.6 12.2 94 0.5 N 17 28 9 15 - - 35.8
07/08:23pm 13.1 10.9 12.0 93 0.6 NNW 15 24 8 13 - - 35.6
07/08:00pm 13.6 9.5 12.7 94 0.5 E 26 32 14 17 - - 31.8
07/07:30pm 12.9 11.8 11.8 93 0.6 N 9 13 5 7 - - 25.0
07/07:00pm 13.3 10.3 12.0 92 0.7 NNE 19 24 10 13 - - 19.8
07/06:40pm 13.5 9.2 12.2 92 0.7 E 26 32 14 17 - - 18.8
07/06:30pm 13.4 8.7 12.1 92 0.7 E 28 32 15 17 - - 18.2
07/06:17pm 13.5 7.5 12.2 92 0.7 E 35 43 19 23 - - 16.8
07/06:00pm 13.4 7.4 12.0 91 0.8 E 35 43 19 23 - - 15.6
07/05:39pm 13.6 8.2 12.2 91 0.8 E 32 35 17 19 - - 14.2
07/05:30pm 13.4 7.3 11.8 90 0.9 E 35 39 19 21 - - 13.8
07/05:20pm 13.5 8.0 11.7 89 1.0 E 32 39 17 21 - - 13.0
07/05:02pm 13.5 8.4 11.9 90 0.9 ESE 30 35 16 19 - - 12.2
07/05:00pm 13.4 8.3 11.8 90 0.9 ESE 30 35 16 19 - - 12.0
07/04:30pm 13.1 8.3 11.5 90 0.8 ESE 28 32 15 17 - - 11.4
07/04:00pm 12.9 8.0 11.3 90 0.8 E 28 32 15 17 - - 10.2
07/03:30pm 13.0 7.7 11.1 88 1.0 E 30 33 16 18 - - 9.0
07/03:00pm 13.1 8.1 10.8 86 1.2 E 28 33 15 18 - - 7.6
07/02:30pm 13.2 9.6 10.7 85 1.3 SE 20 26 11 14 - - 6.2
07/02:00pm 12.7 9.0 10.2 85 1.3 ESE 20 24 11 13 - - 5.8
07/01:30pm 11.6 9.6 10.3 92 0.7 SSW 11 19 6 10 - - 5.0
07/01:00pm 11.6 8.5 10.3 92 0.7 WSW 17 22 9 12 - - 4.2
07/12:30pm 11.5 8.0 10.2 92 0.7 WSW 19 24 10 13 - - 3.8
07/12:00pm 11.7 9.4 10.4 92 0.7 SW 13 17 7 9 - - 3.6
07/11:30am 11.4 8.3 10.3 93 0.6 SW 17 22 9 12 - - 3.4
07/11:00am 11.2 7.7 10.1 93 0.6 SW 19 22 10 12 - - 3.0
07/10:30am 11.1 7.5 10.0 93 0.6 SW 19 22 10 12 - - 2.6
07/10:24am 11.1 7.9 10.0 93 0.6 SW 17 22 9 12 - - 2.4
07/10:11am 11.1 7.9 10.0 93 0.6 SW 17 24 9 13 - - 2.0
07/10:08am 11.0 7.8 9.9 93 0.6 SW 17 26 9 14 - - 2.0
07/10:00am 11.1 7.5 10.0 93 0.6 SW 19 26 10 14 - - 2.0
07/09:30am 11.0 8.9 9.8 92 0.6 SW 11 20 6 11 - - 1.6
07/09:22am 10.8 8.7 9.6 92 0.6 WSW 11 15 6 8 - - 1.0
07/09:00am 10.7 7.7 9.3 91 0.7 SW 15 20 8 11 - - 1.0
07/08:30am 10.7 7.6 9.0 89 0.8 SW 15 19 8 10 - - 0.6
07/08:00am 10.6 7.5 8.9 89 0.8 SW 15 20 8 11 - - 0.4
07/07:30am 10.2 7.4 8.5 89 0.8 SW 13 17 7 9 - - 0.4
07/07:00am 10.5 6.9 8.3 86 1.1 SW 17 22 9 12 - - 0.2
07/06:30am 11.6 7.9 7.9 78 1.8 SSW 17 28 9 15 - - 0.0
07/06:00am 11.2 7.5 6.5 73 2.2 WSW 15 19 8 10 - - 0.0
07/05:30am 11.5 8.1 6.0 69 2.6 SW 13 17 7 9 - - 0.0
07/05:00am 11.5 8.1 5.8 68 2.6 SW 13 19 7 10 - - 0.0
07/04:30am 11.2 7.8 5.7 69 2.5 SW 13 17 7 9 - - 0.0
07/04:00am 11.0 7.1 5.5 69 2.5 SW 15 20 8 11 - - 0.0
07/03:30am 10.9 6.9 5.0 67 2.7 SW 15 19 8 10 - - 0.0
07/03:00am 10.7 7.0 4.4 65 2.8 SW 13 17 7 9 - - 0.0
07/02:30am 10.6 6.5 4.1 64 2.9 SW 15 17 8 9 - - 0.0
07/02:00am 10.4 6.3 4.1 65 2.8 SW 15 19 8 10 - - 0.0
07/01:30am 10.3 6.5 4.0 65 2.8 SW 13 17 7 9 - - 0.0
07/01:00am 10.5 6.8 4.2 65 2.8 SW 13 17 7 9 - - 0.0
07/12:30am 10.2 6.9 4.6 68 2.5 WSW 11 13 6 7 - - 0.0
07/12:00am 10.6 7.3 4.7 67 2.7 SW 11 13 6 7 - - 0.0
 
Date/Time
EST
Temp
°C
App
Temp
°C
Dew
Point
°C
Rel
Hum
%
Delta-T
°C
Wind Press
QNH
hPa
Press
MSL
hPa
Rain since
9am
mm
Dir  Spd
km/h
Gust
km/h
Spd
kts
Gust
kts
06/11:30pm 10.5 7.6 4.6 67 2.6 W 9 11 5 6 - - 0.0
06/11:00pm 10.2 6.9 4.4 67 2.6 WSW 11 11 6 6 - - 0.0
06/10:30pm 10.0 6.6 4.2 67 2.6 WSW 11 13 6 7 - - 0.0
06/10:00pm 9.9 6.4 3.6 65 2.7 W 11 11 6 6 - - 0.0
06/09:30pm 9.9 6.4 3.4 64 2.8 W 11 13 6 7 - - 0.0
06/09:00pm 9.5 5.5 3.0 64 2.8 W 13 15 7 8 - - 0.0
06/08:30pm 9.8 5.8 2.6 61 3.1 WSW 13 15 7 8 - - 0.0
06/08:00pm 10.2 6.8 1.8 56 3.5 WSW 9 11 5 6 - - 0.0
06/07:30pm 12.7 7.8 4.2 56 3.9 SSE 19 24 10 13 - - 0.0
06/07:00pm 12.6 7.4 3.3 53 4.1 SSE 20 24 11 13 - - 0.0
06/06:30pm 12.8 7.6 3.7 54 4.1 SSE 20 26 11 14 - - 0.0
06/06:00pm 12.9 7.5 2.2 48 4.6 SE 20 24 11 13 - - 0.0
06/05:30pm 13.0 7.7 1.7 46 4.9 SSE 19 24 10 13 - - 0.0
06/05:00pm 13.3 8.4 2.2 47 4.8 SSE 17 20 9 11 - - 0.0
06/04:30pm 13.3 9.7 -1.8 35 6.0 ESE 7 11 4 6 - - 0.0
06/04:00pm 13.5 9.5 0.2 40 5.6 SE 11 15 6 8 - - 0.0
06/03:30pm 13.6 9.4 -0.8 37 5.9 SE 11 13 6 7 - - 0.0
06/03:00pm 13.9 10.0 -1.7 34 6.3 SE 9 15 5 8 - - 0.0
06/02:30pm 14.3 9.6 0.9 40 5.7 SE 15 19 8 10 - - 0.0
06/02:00pm 14.4 9.6 0.3 38 6.0 SE 15 19 8 10 - - 0.0
06/01:30pm 14.1 8.9 0.0 38 5.9 SE 17 20 9 11 - - 0.0
06/01:00pm 14.3 9.1 -0.2 37 6.1 SE 17 19 9 10 - - 0.0
06/12:30pm 14.4 9.4 -1.2 34 6.4 SSE 15 17 8 9 - - 0.0
06/12:00pm 14.3 9.6 -2.1 32 6.6 S 13 19 7 10 - - 0.0
06/11:30am 14.3 9.4 -0.5 36 6.1 SSW 15 20 8 11 - - 0.0
06/11:00am 13.1 7.0 -2.4 34 6.1 SSW 20 26 11 14 - - 0.0
06/10:30am 12.6 6.3 -4.1 31 6.3 SW 20 28 11 15 - - 0.0
06/10:00am 12.7 7.3 -1.6 37 5.7 W 17 28 9 15 - - 0.0
06/09:30am 11.8 6.0 -1.3 40 5.2 W 19 32 10 17 - - 0.0
06/09:00am 10.8 5.3 -1.9 41 4.9 W 17 28 9 15 - - 0.0
06/08:30am 10.0 3.6 -1.7 44 4.5 W 22 33 12 18 - - 0.0
06/08:00am 9.4 3.0 -1.6 46 4.2 W 22 33 12 18 - - 0.0
06/07:30am 8.8 3.0 -1.6 48 4.0 WSW 19 26 10 14 - - 0.0
06/07:00am 8.4 2.4 -1.7 49 3.8 WSW 20 30 11 16 - - 0.0
06/06:30am 8.2 2.4 -1.6 50 3.7 WSW 19 24 10 13 - - 0.0
06/06:00am 8.4 3.3 -1.7 49 3.8 WSW 15 22 8 12 - - 0.0
06/05:30am 8.5 2.8 -1.0 51 3.7 WSW 19 26 10 14 - - 0.0
06/05:00am 8.5 2.6 -1.0 51 3.7 WSW 20 30 11 16 - - 0.0
06/04:30am 8.7 3.4 -0.6 52 3.6 WSW 17 28 9 15 - - 0.0
06/04:00am 8.9 2.6 -0.7 51 3.7 WSW 22 39 12 21 - - 0.0
06/03:30am 8.8 1.8 -0.5 52 3.6 W 26 41 14 22 - - 0.0
06/03:22am 8.7 1.4 -0.3 53 3.5 WNW 28 48 15 26 - - 0.0
06/03:00am 8.8 1.8 -0.5 52 3.6 WNW 26 39 14 21 - - 0.0
06/02:30am 9.2 1.8 -0.7 50 3.9 WNW 28 46 15 25 - - 0.0
06/02:00am 9.4 2.7 -1.3 47 4.1 W 24 39 13 21 - - 0.0
06/01:30am 9.7 2.2 -1.6 45 4.4 W 28 43 15 23 - - 0.0
06/01:00am 9.8 1.5 -1.6 45 4.4 W 32 52 17 28 - - 0.0
06/12:39am 9.7 1.8 -1.3 46 4.3 W 30 48 16 26 - - 0.0
06/12:30am 9.7 1.5 -1.3 46 4.3 W 32 48 17 26 - - 0.0
06/12:00am 9.8 1.9 -1.3 46 4.3 W 30 52 16 28 - - 0.0
 
Date/Time
EST
Temp
°C
App
Temp
°C
Dew
Point
°C
Rel
Hum
%
Delta-T
°C
Wind Press
QNH
hPa
Press
MSL
hPa
Rain since
9am
mm
Dir  Spd
km/h
Gust
km/h
Spd
kts
Gust
kts
05/11:30pm 9.9 2.4 -1.2 46 4.3 W 28 48 15 26 - - 0.0
05/11:04pm 9.9 1.7 -1.2 46 4.3 W 32 50 17 27 - - 0.0
05/11:00pm 10.0 1.6 -1.1 46 4.3 W 33 48 18 26 - - 0.0
05/10:30pm 10.1 1.9 -1.0 46 4.4 W 32 52 17 28 - - 0.0
05/10:00pm 10.2 2.7 -1.2 45 4.5 W 28 46 15 25 - - 0.0
05/09:49pm 10.3 2.8 -1.1 45 4.5 W 28 52 15 28 - - 0.0
05/09:30pm 10.2 4.4 -1.2 45 4.5 WSW 19 41 10 22 - - 0.0
05/09:09pm 10.3 2.8 -1.1 45 4.5 W 28 48 15 26 - - 0.0
05/09:00pm 10.1 4.4 -1.0 46 4.4 WSW 19 30 10 16 - - 0.0
05/08:30pm 10.4 2.9 -1.3 44 4.6 WSW 28 35 15 19 - - 0.0
05/08:00pm 10.5 4.2 -0.9 45 4.5 SW 22 43 12 23 - - 0.0
05/07:30pm 10.7 4.4 -1.0 44 4.6 WSW 22 32 12 17 - - 0.0
05/07:00pm 11.0 6.3 -1.7 41 5.0 SW 13 22 7 12 - - 0.0
05/06:30pm 11.2 6.8 -2.6 38 5.3 WSW 11 19 6 10 - - 0.0
05/06:00pm 11.6 5.7 -2.6 37 5.5 WSW 19 35 10 19 - - 0.0
05/05:30pm 12.3 6.2 -3.5 33 6.0 WSW 19 33 10 18 - - 0.0
05/05:00pm 12.8 7.8 -3.9 31 6.3 WSW 13 28 7 15 - - 0.0
05/04:30pm 14.0 9.1 -3.7 29 6.8 W 13 22 7 12 - - 0.0
05/04:00pm 14.3 7.6 -4.4 27 7.1 SW 22 37 12 20 - - 0.0
05/03:30pm 15.3 9.7 -3.1 28 7.3 W 17 30 9 16 - - 0.0
05/03:00pm 15.4 8.8 -3.5 27 7.4 WSW 22 37 12 20 - - 0.0
05/02:30pm 15.4 9.2 -3.5 27 7.4 W 20 33 11 18 - - 0.0
05/02:00pm 15.5 9.2 -3.9 26 7.6 WSW 20 32 11 17 - - 0.0
05/01:30pm 15.2 9.8 -1.4 32 6.8 SW 17 26 9 14 - - 0.0

Other formats

Comma delimited format used in spreadsheet applications
http://www.bom.gov.au/fwo/IDN60801/IDN60801.94749.axf

JavaScript Object Notation format (JSON) in row-major order
http://www.bom.gov.au/fwo/IDN60801/IDN60801.94749.json

Data quality

Most of these data are generated automatically and are frequently updated. Quality checks on data are not normally performed. It is possible for incorrect values to appear. Refer to information at About Latest Weather Observations and please check the disclaimer before using these data.